Lanham, Nebraska
Current Conditions -  °F | °C
As of 8:55 AM on Sunday 21 Dec 2014 (Local Time) from KMYZ Reporting Station
Haze Haze  
Wind Chill: 31°   Ceiling: 700
Heat Index: 39°   Visibility: 5mi
Dew Point: 37°   Wind: 14mph
Humidity: 93%   Direction: 190°S
Pressure: 29.9"   Gusts: 17mph
Location:  40.0451°N, 96.8032°W
Report Text: KMYZ 211455Z AUTO 19012G15KT 5SM BR OVC007 04/03 A2990 RMK AO2
Loading
Personal Weather Stations






























Interactive Weather Map New forecast layout! Learn more

10-Day Weather Forecast

Advertisements
Track Severe Weather on mobile